Time;durP1;ratioP1;P1;durP2;ratioP2;P2;SDS_P1;SDS_P2;PMS_P1;PMS_P2;Temp;Humidity;BMP_temperature;BMP_pressure;BME280_temperature;BME280_humidity;BME280_pressure;Samples;Min_cycle;Max_cycle;Signal;HPM_P1;HPM_P2
2022/01/09 00:00:29;;;;;;;5.40;2.80;;;;;;;5.80;100.00;93664.28;4953184;28;20274;-64
2022/01/09 00:02:55;;;;;;;5.60;2.80;;;;;;;5.76;100.00;93665.47;4952599;28;20218;-61
2022/01/09 00:05:21;;;;;;;3.80;3.13;;;;;;;5.77;100.00;93662.03;4952929;28;20239;-61
2022/01/09 00:07:48;;;;;;;3.70;2.93;;;;;;;5.76;100.00;93670.50;4952563;28;20210;-64
2022/01/09 00:10:14;;;;;;;5.93;2.93;;;;;;;5.71;100.00;93670.91;4953044;28;20299;-63
2022/01/09 00:12:39;;;;;;;5.00;3.47;;;;;;;5.64;100.00;93666.47;4952613;28;20657;-63
2022/01/09 00:15:06;;;;;;;7.97;4.90;;;;;;;5.43;100.00;93668.22;4952675;28;20246;-63
2022/01/09 00:17:32;;;;;;;12.03;5.70;;;;;;;5.41;100.00;93670.88;4952435;28;20195;-62
2022/01/09 00:19:57;;;;;;;7.97;4.57;;;;;;;5.43;100.00;93665.69;4952529;28;20210;-62
2022/01/09 00:22:34;;;;;;;8.03;4.87;;;;;;;5.59;100.00;93673.63;4952712;28;20185;-63
2022/01/09 00:24:59;;;;;;;8.70;4.93;;;;;;;5.68;100.00;93670.34;4952560;28;20655;-61
2022/01/09 00:27:25;;;;;;;8.23;5.53;;;;;;;5.66;100.00;93659.56;4951689;29;20246;-63
2022/01/09 00:29:50;;;;;;;8.13;4.80;;;;;;;5.65;100.00;93648.72;4951047;29;20213;-63
2022/01/09 00:32:16;;;;;;;8.17;5.20;;;;;;;5.66;100.00;93659.56;4953044;28;20219;-60
2022/01/09 00:34:41;;;;;;;9.50;5.53;;;;;;;5.63;100.00;93659.84;4952345;28;20250;-61
2022/01/09 00:37:07;;;;;;;8.60;5.27;;;;;;;5.49;100.00;93650.09;4951034;29;20256;-61
2022/01/09 00:39:32;;;;;;;12.67;6.87;;;;;;;5.24;100.00;93631.09;4960734;23;20204;-63
2022/01/09 00:41:58;;;;;;;11.67;7.57;;;;;;;5.13;100.00;93645.50;4991151;28;20342;-61
2022/01/09 00:44:23;;;;;;;12.33;7.10;;;;;;;5.39;100.00;93641.69;4999730;23;20514;-60
2022/01/09 00:46:48;;;;;;;11.73;6.60;;;;;;;5.55;100.00;93657.97;4970458;28;20236;-62
2022/01/09 00:49:14;;;;;;;11.77;7.00;;;;;;;5.65;100.00;93655.47;4971362;28;20188;-62
2022/01/09 00:51:39;;;;;;;12.80;7.40;;;;;;;5.53;100.00;93638.84;4971600;28;20190;-62
2022/01/09 00:54:05;;;;;;;14.67;7.97;;;;;;;5.60;100.00;93642.44;4971423;28;20228;-59
2022/01/09 00:56:30;;;;;;;12.97;7.60;;;;;;;5.58;100.00;93634.19;4969915;28;20194;-61
2022/01/09 00:58:56;;;;;;;12.83;7.07;;;;;;;5.58;100.00;93641.75;4971278;28;20222;-63
2022/01/09 01:01:21;;;;;;;13.60;7.57;;;;;;;5.59;100.00;93645.91;4971239;28;20669;-62
2022/01/09 01:03:47;;;;;;;14.17;7.50;;;;;;;5.68;100.00;93665.28;4971017;28;20178;-61
2022/01/09 01:06:13;;;;;;;13.10;7.90;;;;;;;5.22;100.00;93657.34;4970982;28;20715;-61
2022/01/09 01:08:38;;;;;;;14.03;7.57;;;;;;;5.23;100.00;93649.69;4970970;28;20618;-61
2022/01/09 01:11:04;;;;;;;14.57;8.47;;;;;;;5.41;100.00;93665.03;4970876;28;20203;-60
2022/01/09 01:13:30;;;;;;;13.07;7.93;;;;;;;4.90;100.00;93633.00;4971189;28;20178;-62
2022/01/09 01:15:56;;;;;;;13.20;8.77;;;;;;;5.08;100.00;93628.22;4970918;28;20228;-59
2022/01/09 01:18:21;;;;;;;11.47;7.30;;;;;;;5.02;100.00;93621.16;4971113;28;20637;-61
2022/01/09 01:20:47;;;;;;;15.30;7.93;;;;;;;5.11;100.00;93618.69;4971280;28;20619;-59
2022/01/09 01:23:12;;;;;;;13.07;8.10;;;;;;;5.23;100.00;93623.69;4969644;28;20620;-63
2022/01/09 01:25:40;;;;;;;11.00;7.30;;;;;;;5.16;100.00;93609.97;4971218;28;20670;-63
2022/01/09 01:28:05;;;;;;;11.43;6.77;;;;;;;5.33;100.00;93622.00;4970704;28;20660;-62
2022/01/09 01:30:30;;;;;;;11.93;7.20;;;;;;;5.27;100.00;93615.75;4971234;28;20210;-59
2022/01/09 01:32:56;;;;;;;13.63;7.67;;;;;;;5.44;100.00;93614.38;4970771;28;20187;-62
2022/01/09 01:35:21;;;;;;;11.73;7.17;;;;;;;5.43;100.00;93612.78;4971133;28;20203;-62
2022/01/09 01:37:47;;;;;;;12.33;7.03;;;;;;;5.57;100.00;93618.31;4970611;28;20247;-63
2022/01/09 01:40:17;;;;;;;15.23;7.80;;;;;;;5.43;100.00;93610.28;4971003;28;20215;-62
2022/01/09 01:42:43;;;;;;;12.17;7.43;;;;;;;5.40;100.00;93607.97;4969389;28;20369;-61
2022/01/09 01:45:10;;;;;;;9.47;7.07;;;;;;;5.55;100.00;93611.78;4968931;28;20218;-62
2022/01/09 01:47:36;;;;;;;13.93;7.63;;;;;;;5.60;100.00;93605.44;4970272;28;20221;-60
2022/01/09 01:50:04;;;;;;;14.73;7.57;;;;;;;5.55;100.00;93599.19;4970248;28;20679;-62
2022/01/09 01:52:35;;;;;;;12.03;7.60;;;;;;;5.57;100.00;93594.81;4970486;28;20229;-63
2022/01/09 01:55:01;;;;;;;11.40;7.63;;;;;;;5.52;100.00;93594.38;4968994;28;20238;-62
2022/01/09 01:57:28;;;;;;;13.37;8.53;;;;;;;5.36;100.00;93596.56;4969110;28;20185;-62
2022/01/09 01:59:55;;;;;;;12.33;7.30;;;;;;;4.91;100.00;93571.66;4970544;28;20219;-62
2022/01/09 02:02:22;;;;;;;11.83;7.67;;;;;;;5.15;100.00;93571.41;4970539;28;20320;-64
2022/01/09 02:04:47;;;;;;;11.40;7.97;;;;;;;5.32;100.00;93575.06;4968968;28;20305;-61
2022/01/09 02:07:13;;;;;;;12.80;7.67;;;;;;;5.13;100.00;93572.44;4970321;28;20304;-61
2022/01/09 02:09:39;;;;;;;11.63;7.63;;;;;;;5.37;100.00;93578.81;4970362;28;20209;-61
2022/01/09 02:12:05;;;;;;;11.87;7.43;;;;;;;5.60;100.00;93590.31;4970505;28;20261;-63
2022/01/09 02:14:35;;;;;;;13.77;8.10;;;;;;;5.43;100.00;93565.72;4970349;28;20188;-62
2022/01/09 02:17:00;;;;;;;10.47;6.83;;;;;;;5.47;100.00;93558.69;4970159;28;20571;-62
2022/01/09 02:19:27;;;;;;;14.33;7.70;;;;;;;5.66;100.00;93568.84;4968698;28;20209;-62
2022/01/09 02:21:54;;;;;;;9.03;6.13;;;;;;;5.68;100.00;93564.47;4970087;28;20186;-63
2022/01/09 02:24:23;;;;;;;11.43;7.47;;;;;;;5.63;100.00;93574.94;4970164;28;20662;-63
2022/01/09 02:27:01;;;;;;;10.40;6.53;;;;;;;5.35;100.00;93549.63;4969851;28;20213;-62
2022/01/09 02:29:26;;;;;;;10.83;6.50;;;;;;;5.30;100.00;93549.19;4969928;28;20205;-64
2022/01/09 02:31:52;;;;;;;13.37;6.93;;;;;;;5.31;100.00;93533.97;4970028;28;20176;-62
2022/01/09 02:34:17;;;;;;;10.53;6.63;;;;;;;5.45;100.00;93531.13;4970002;28;20180;-61
2022/01/09 02:36:43;;;;;;;11.00;6.50;;;;;;;5.52;100.00;93526.34;4969833;28;20182;-62
2022/01/09 02:39:08;;;;;;;10.20;6.33;;;;;;;5.60;100.00;93539.91;4970059;28;20554;-62
2022/01/09 02:41:34;;;;;;;11.60;7.30;;;;;;;5.67;100.00;93542.72;4969737;28;20207;-62
2022/01/09 02:44:06;;;;;;;9.67;6.63;;;;;;;5.64;100.00;93530.34;4969728;28;20191;-60
2022/01/09 02:48:57;;;;;;;11.83;6.80;;;;;;;5.71;100.00;93526.41;4969986;28;20642;-62
2022/01/09 02:51:24;;;;;;;11.93;6.83;;;;;;;5.77;100.00;93519.13;4969751;28;20198;-59
2022/01/09 02:53:56;;;;;;;11.33;7.00;;;;;;;5.79;100.00;93519.81;4969523;28;20184;-63
2022/01/09 02:56:22;;;;;;;10.77;6.30;;;;;;;5.81;100.00;93524.72;4969669;28;20226;-61
2022/01/09 02:58:47;;;;;;;9.93;6.77;;;;;;;5.74;100.00;93534.50;4969572;28;20265;-62
2022/01/09 03:01:13;;;;;;;11.47;7.20;;;;;;;5.68;100.00;93526.66;4969599;28;20208;-61
2022/01/09 03:03:39;;;;;;;9.63;6.83;;;;;;;5.57;100.00;93514.16;4972590;28;20176;-58
2022/01/09 03:06:07;;;;;;;10.20;7.50;;;;;;;5.64;100.00;93516.03;4971756;28;20325;-62
2022/01/09 03:08:34;;;;;;;14.00;7.80;;;;;;;5.70;100.00;93520.56;4971644;28;20208;-59
2022/01/09 03:10:59;;;;;;;11.57;7.23;;;;;;;5.62;100.00;93522.94;4972823;28;20203;-63
2022/01/09 03:13:25;;;;;;;10.07;7.30;;;;;;;5.70;100.00;93514.72;4973296;28;20510;-62
2022/01/09 03:15:50;;;;;;;12.87;7.77;;;;;;;5.63;100.00;93504.38;4971729;28;20574;-59
2022/01/09 03:18:16;;;;;;;9.97;6.87;;;;;;;5.64;100.00;93510.19;4971507;28;20252;-60
2022/01/09 03:20:41;;;;;;;12.40;7.07;;;;;;;5.68;100.00;93503.97;4973180;28;20614;-62
2022/01/09 03:23:07;;;;;;;12.40;7.07;;;;;;;5.69;100.00;93498.81;4971509;28;20199;-61
2022/01/09 03:25:34;;;;;;;12.03;7.30;;;;;;;5.84;100.00;93512.66;4973158;28;20214;-63
2022/01/09 03:27:59;;;;;;;10.80;7.37;;;;;;;5.70;100.00;93507.97;4971292;28;20203;-61
2022/01/09 03:30:26;;;;;;;12.60;7.00;;;;;;;5.65;100.00;93499.19;4972851;28;20676;-62
2022/01/09 03:32:53;;;;;;;13.67;8.30;;;;;;;5.55;100.00;93480.72;4972482;28;20644;-62
2022/01/09 03:35:22;;;;;;;12.57;7.10;;;;;;;5.58;100.00;93485.50;4955482;28;20215;-63
2022/01/09 03:37:49;;;;;;;11.10;7.10;;;;;;;5.61;100.00;93492.81;4971212;28;20265;-63
2022/01/09 03:40:21;;;;;;;10.53;7.10;;;;;;;5.82;100.00;93509.44;4972798;28;20660;-63
2022/01/09 03:42:48;;;;;;;11.33;7.50;;;;;;;5.81;100.00;93507.88;4971279;28;20275;-61
2022/01/09 03:45:15;;;;;;;10.17;6.37;;;;;;;5.75;100.00;93487.41;4971243;28;20532;-61
2022/01/09 03:47:41;;;;;;;12.33;6.97;;;;;;;5.63;100.00;93486.72;4972348;28;20233;-59
2022/01/09 03:50:09;;;;;;;10.70;6.57;;;;;;;5.57;100.00;93473.84;4972585;28;20664;-59
2022/01/09 03:52:37;;;;;;;12.13;7.40;;;;;;;5.77;100.00;93475.47;4972547;28;20210;-61
2022/01/09 03:55:04;;;;;;;11.00;6.30;;;;;;;5.75;100.00;93480.66;4972699;28;20237;-63
2022/01/09 03:57:29;;;;;;;13.23;7.20;;;;;;;5.77;100.00;93483.84;4972060;28;20182;-63
2022/01/09 03:59:55;;;;;;;11.33;6.60;;;;;;;5.77;100.00;93476.28;4972404;28;20268;-62
2022/01/09 04:02:21;;;;;;;10.00;6.27;;;;;;;5.79;100.00;93481.97;4970858;28;20191;-62
2022/01/09 04:04:46;;;;;;;13.30;7.10;;;;;;;5.67;100.00;93470.41;4970629;28;20218;-62
2022/01/09 04:07:11;;;;;;;11.40;6.00;;;;;;;5.81;100.00;93486.88;4970744;28;20218;-60
2022/01/09 04:09:39;;;;;;;13.30;7.23;;;;;;;5.80;100.00;93485.28;4972044;28;20690;-59
2022/01/09 04:12:15;;;;;;;11.03;5.93;;;;;;;5.81;100.00;93480.13;4972249;28;20194;-61
2022/01/09 04:14:48;;;;;;;14.00;7.53;;;;;;;5.95;100.00;93491.59;4972037;28;20699;-62
2022/01/09 04:17:29;;;;;;;9.03;6.20;;;;;;;5.86;100.00;93484.78;4972041;28;20174;-62
2022/01/09 04:19:55;;;;;;;10.57;7.13;;;;;;;5.64;100.00;93470.66;4970928;28;20222;-62
2022/01/09 04:22:20;;;;;;;11.97;6.70;;;;;;;5.72;100.00;93473.34;4972173;28;20566;-63
2022/01/09 04:24:46;;;;;;;12.33;7.27;;;;;;;5.78;100.00;93477.03;4971796;28;20215;-62
2022/01/09 04:27:18;;;;;;;10.73;6.97;;;;;;;5.68;100.00;93464.44;4971980;28;20216;-62
2022/01/09 04:29:51;;;;;;;9.23;5.33;;;;;;;5.72;100.00;93472.53;4971970;28;20207;-63
2022/01/09 04:32:16;;;;;;;7.77;4.80;;;;;;;5.72;100.00;93458.22;4971913;28;20183;-63
2022/01/09 04:34:42;;;;;;;5.63;3.73;;;;;;;5.79;100.00;93471.09;4971945;28;20219;-62
2022/01/09 04:37:07;;;;;;;6.20;4.20;;;;;;;5.70;100.00;93465.09;4971808;28;20186;-61
2022/01/09 04:39:34;;;;;;;5.90;4.07;;;;;;;5.74;100.00;93465.63;4971691;28;20624;-62
2022/01/09 04:42:00;;;;;;;5.53;3.80;;;;;;;5.85;100.00;93471.41;4971591;28;20571;-62
2022/01/09 04:44:25;;;;;;;4.47;3.20;;;;;;;5.79;100.00;93476.13;4971736;28;20240;-62
2022/01/09 04:46:59;;;;;;;5.20;3.60;;;;;;;5.59;100.00;93446.78;4971291;28;20210;-62
2022/01/09 04:49:29;;;;;;;7.07;4.07;;;;;;;5.64;100.00;93465.63;4970291;28;20210;-62
2022/01/09 04:51:56;;;;;;;5.60;3.30;;;;;;;5.84;100.00;93486.66;4970374;28;20277;-62
2022/01/09 04:54:21;;;;;;;4.40;3.10;;;;;;;5.56;100.00;93467.19;4970747;28;20636;-62
2022/01/09 04:56:47;;;;;;;4.43;3.17;;;;;;;5.58;100.00;93475.41;4971880;28;20194;-62
2022/01/09 04:59:12;;;;;;;4.90;2.73;;;;;;;5.72;100.00;93477.56;4971375;28;20298;-58
2022/01/09 05:01:37;;;;;;;6.47;3.43;;;;;;;5.79;100.00;93479.47;4971844;28;20678;-64
2022/01/09 05:04:03;;;;;;;7.13;3.60;;;;;;;5.85;100.00;93484.00;4972363;28;20305;-63
2022/01/09 05:06:29;;;;;;;3.93;3.20;;;;;;;5.83;100.00;93490.06;4972153;28;20198;-64
2022/01/09 05:08:54;;;;;;;4.77;3.27;;;;;;;5.59;100.00;93469.47;4971927;28;20297;-64
2022/01/09 05:11:20;;;;;;;3.93;2.77;;;;;;;5.57;100.00;93466.28;4970424;28;20776;-62
2022/01/09 05:13:45;;;;;;;5.87;3.30;;;;;;;5.54;100.00;93471.56;4971527;28;20197;-62
2022/01/09 05:16:11;;;;;;;4.83;3.10;;;;;;;5.41;100.00;93441.59;4954520;28;20198;-61
2022/01/09 05:18:50;;;;;;;3.93;2.80;;;;;;;5.51;100.00;93466.78;4972023;28;20274;-61
2022/01/09 05:21:16;;;;;;;4.33;3.40;;;;;;;5.40;100.00;93457.63;4971097;28;20542;-62
2022/01/09 05:23:42;;;;;;;4.10;3.17;;;;;;;5.55;100.00;93461.38;4971358;28;20189;-63
2022/01/09 05:26:08;;;;;;;3.47;2.60;;;;;;;5.80;100.00;93472.69;4968935;28;20342;-62
2022/01/09 05:28:34;;;;;;;4.63;3.53;;;;;;;5.78;100.00;93466.97;4970729;28;20207;-59
2022/01/09 05:30:59;;;;;;;4.90;3.47;;;;;;;5.83;100.00;93465.69;4970587;28;20601;-63
2022/01/09 05:33:25;;;;;;;4.17;2.43;;;;;;;5.86;100.00;93470.47;4969284;28;20201;-65
2022/01/09 05:35:50;;;;;;;3.77;2.97;;;;;;;5.90;100.00;93456.66;4970986;28;20217;-62
2022/01/09 05:38:18;;;;;;;4.00;2.90;;;;;;;5.74;100.00;93445.47;4969131;28;20532;-60
2022/01/09 05:40:44;;;;;;;6.10;3.40;;;;;;;5.51;100.00;93437.34;4971073;28;20650;-61
2022/01/09 05:43:17;;;;;;;7.00;4.17;;;;;;;5.83;100.00;93462.34;4970465;28;20198;-63
2022/01/09 05:45:43;;;;;;;5.93;3.80;;;;;;;5.74;100.00;93453.03;4969576;28;20222;-63
2022/01/09 05:48:08;;;;;;;4.97;3.87;;;;;;;5.92;100.00;93464.09;4970625;28;20713;-63
2022/01/09 05:50:34;;;;;;;4.90;3.57;;;;;;;6.17;100.00;93481.25;4971068;28;20206;-62
2022/01/09 05:53:00;;;;;;;6.93;4.77;;;;;;;6.26;100.00;93482.94;4969247;28;20267;-60
2022/01/09 05:55:26;;;;;;;7.33;4.87;;;;;;;6.22;100.00;93480.84;4970648;28;20310;-60
2022/01/09 05:57:52;;;;;;;9.83;5.30;;;;;;;6.10;100.00;93482.69;4970516;28;20188;-60
2022/01/09 06:00:17;;;;;;;11.23;6.63;;;;;;;5.93;100.00;93468.22;4969207;28;20208;-61
2022/01/09 06:02:43;;;;;;;20.57;6.83;;;;;;;5.83;100.00;93460.66;4970328;28;20229;-59
2022/01/09 06:05:09;;;;;;;18.07;7.30;;;;;;;5.90;100.00;93465.94;4968958;28;20217;-59
2022/01/09 06:07:41;;;;;;;15.83;6.17;;;;;;;5.75;100.00;93442.03;4970191;28;20253;-61
2022/01/09 06:10:08;;;;;;;15.20;6.27;;;;;;;5.76;100.00;93436.03;4970510;28;20210;-58
2022/01/09 06:12:34;;;;;;;27.63;12.50;;;;;;;5.71;100.00;93433.94;4970493;28;20208;-59
2022/01/09 06:14:59;;;;;;;10.43;5.80;;;;;;;5.87;100.00;93441.81;4970506;28;20206;-61
2022/01/09 06:17:25;;;;;;;15.13;6.10;;;;;;;5.91;100.00;93448.19;4970138;28;20672;-62
2022/01/09 06:19:51;;;;;;;14.63;5.90;;;;;;;5.93;100.00;93441.28;4970468;28;20289;-58
2022/01/09 06:22:18;;;;;;;11.97;6.50;;;;;;;5.84;100.00;93451.34;4987399;23;20231;-60
2022/01/09 06:24:50;;;;;;;8.23;5.70;;;;;;;5.84;100.00;93453.88;4969117;28;20259;-62
2022/01/09 06:27:17;;;;;;;12.53;6.43;;;;;;;5.71;100.00;93441.50;4969710;28;20347;-61
2022/01/09 06:29:42;;;;;;;11.23;6.33;;;;;;;5.80;100.00;93449.97;4968818;28;20210;-58
2022/01/09 06:32:08;;;;;;;13.13;6.83;;;;;;;5.77;100.00;93446.03;4970255;28;20186;-61
2022/01/09 06:34:34;;;;;;;8.27;5.30;;;;;;;5.91;100.00;93439.81;4969778;28;20203;-62
2022/01/09 06:37:00;;;;;;;10.70;6.03;;;;;;;6.21;100.00;93469.16;4972137;28;20211;-61
2022/01/09 06:39:25;;;;;;;8.57;5.50;;;;;;;6.05;100.00;93453.75;4971921;28;20276;-63
2022/01/09 06:41:51;;;;;;;8.43;6.03;;;;;;;6.07;100.00;93464.50;4973711;28;20276;-60
2022/01/09 06:44:16;;;;;;;11.43;5.20;;;;;;;5.90;100.00;93443.25;4973060;28;20182;-63
2022/01/09 06:46:43;;;;;;;8.30;5.50;;;;;;;5.94;100.00;93447.09;4973521;28;20190;-63
2022/01/09 06:49:09;;;;;;;9.17;5.37;;;;;;;6.10;100.00;93462.50;4973280;28;20550;-60
2022/01/09 06:51:34;;;;;;;7.60;5.33;;;;;;;6.07;100.00;93454.41;4955964;28;20300;-59
2022/01/09 06:54:00;;;;;;;7.20;5.07;;;;;;;6.25;100.00;93465.44;4971752;28;20183;-60
2022/01/09 06:56:25;;;;;;;8.37;4.50;;;;;;;6.12;100.00;93459.88;4973511;28;20286;-62
2022/01/09 06:58:51;;;;;;;8.33;5.50;;;;;;;6.15;100.00;93452.84;4973073;28;20730;-62
2022/01/09 07:01:16;;;;;;;7.47;4.53;;;;;;;6.17;100.00;93458.53;4971952;28;20219;-62
2022/01/09 07:03:42;;;;;;;8.80;5.23;;;;;;;6.10;100.00;93447.38;4973256;28;20189;-63
2022/01/09 07:06:07;;;;;;;10.30;5.40;;;;;;;6.15;100.00;93436.88;4973440;28;20235;-62
2022/01/09 07:08:34;;;;;;;7.57;4.90;;;;;;;6.30;100.00;93453.22;4978885;23;20627;-59
2022/01/09 07:11:01;;;;;;;7.20;4.47;;;;;;;6.32;100.00;93454.66;4972759;28;20215;-62
2022/01/09 07:13:26;;;;;;;8.77;4.97;;;;;;;6.45;100.00;93461.97;4971737;28;20187;-60
2022/01/09 07:15:52;;;;;;;8.20;5.33;;;;;;;6.59;100.00;93474.97;4972909;28;20637;-59
2022/01/09 07:18:17;;;;;;;9.53;5.57;;;;;;;6.47;100.00;93457.56;4972984;28;20266;-62
2022/01/09 07:20:43;;;;;;;16.77;6.27;;;;;;;6.22;100.00;93446.31;4972768;28;20243;-62
2022/01/09 07:23:08;;;;;;;8.43;6.00;;;;;;;6.19;100.00;93444.06;4972919;28;20188;-62
2022/01/09 07:25:34;;;;;;;12.07;6.10;;;;;;;6.32;100.00;93442.06;4971404;28;20214;-62
2022/01/09 07:28:02;;;;;;;9.03;4.97;;;;;;;6.71;100.00;93483.19;4971354;28;20215;-66
2022/01/09 07:30:28;;;;;;;10.80;5.30;;;;;;;6.91;100.00;93497.38;4971322;28;20722;-60
2022/01/09 07:32:54;;;;;;;10.27;5.87;;;;;;;6.84;100.00;93480.38;4972665;28;20572;-62
2022/01/09 07:35:20;;;;;;;11.13;5.93;;;;;;;7.02;100.00;93496.41;4972526;28;20203;-59
2022/01/09 07:37:46;;;;;;;13.47;6.80;;;;;;;6.79;100.00;93476.53;4972707;28;20194;-59
2022/01/09 07:40:12;;;;;;;11.47;5.97;;;;;;;6.82;100.00;93475.47;4972672;28;20591;-61
2022/01/09 07:42:38;;;;;;;12.93;6.63;;;;;;;6.88;100.00;93476.63;4971328;28;20188;-60
2022/01/09 07:45:07;;;;;;;11.23;6.10;;;;;;;6.91;100.00;93473.84;4972665;28;20325;-62
2022/01/09 07:47:34;;;;;;;10.17;5.83;;;;;;;7.26;100.00;93423.44;4971625;28;20208;-63
2022/01/09 07:49:59;;;;;;;10.10;5.63;;;;;;;7.60;100.00;93492.72;4971007;28;20207;-63
2022/01/09 07:52:25;;;;;;;9.57;5.40;;;;;;;7.61;100.00;93502.69;4972336;28;20180;-60
2022/01/09 07:54:50;;;;;;;9.77;5.30;;;;;;;7.57;100.00;93501.38;4972760;28;20215;-63
2022/01/09 07:57:17;;;;;;;9.30;6.00;;;;;;;7.77;100.00;93453.25;4972383;28;20183;-59
2022/01/09 07:59:43;;;;;;;9.23;5.20;;;;;;;7.89;100.00;93480.72;4972604;28;20206;-62
2022/01/09 08:02:09;;;;;;;18.90;9.13;;;;;;;7.84;100.00;93457.56;4972249;28;20180;-62
2022/01/09 08:04:35;;;;;;;9.40;5.90;;;;;;;8.41;100.00;93423.47;4972596;28;20204;-63
2022/01/09 08:07:01;;;;;;;9.63;5.90;;;;;;;8.64;100.00;93490.44;4970672;28;20295;-61
2022/01/09 08:09:26;;;;;;;8.27;5.63;;;;;;;8.92;100.00;93513.91;4972105;28;20624;-64
2022/01/09 08:11:52;;;;;;;9.27;5.17;;;;;;;8.95;100.00;93528.81;4970973;28;20215;-63
2022/01/09 08:14:17;;;;;;;9.80;4.93;;;;;;;9.13;100.00;93492.34;4972390;28;20214;-63
2022/01/09 08:16:43;;;;;;;14.60;7.40;;;;;;;9.15;100.00;93462.56;4971944;28;20203;-63
2022/01/09 08:19:08;;;;;;;8.47;4.20;;;;;;;9.82;100.00;93433.03;4972132;28;20188;-63
2022/01/09 08:21:34;;;;;;;6.83;4.23;;;;;;;10.03;100.00;93524.78;4972028;28;20219;-59
2022/01/09 08:23:59;;;;;;;6.77;4.10;;;;;;;10.34;99.92;93528.41;4970620;28;20230;-61
2022/01/09 08:26:25;;;;;;;10.60;6.23;;;;;;;10.62;98.02;93534.78;4970393;28;20211;-62
2022/01/09 08:28:50;;;;;;;12.63;6.10;;;;;;;10.73;94.82;93552.25;4970626;28;20220;-64
2022/01/09 08:31:17;;;;;;;9.03;6.43;;;;;;;10.70;94.91;93539.06;4971616;28;20193;-63
2022/01/09 08:33:43;;;;;;;12.80;8.30;;;;;;;10.56;96.30;93501.56;4972136;28;20212;-64
2022/01/09 08:36:09;;;;;;;13.27;8.43;;;;;;;10.68;97.46;93495.22;4971489;28;20203;-60
2022/01/09 08:38:35;;;;;;;15.03;8.30;;;;;;;10.86;94.86;93534.00;4971766;28;20241;-63
2022/01/09 08:41:00;;;;;;;12.20;7.87;;;;;;;10.80;95.67;93506.66;4971421;28;20205;-63
2022/01/09 08:43:26;;;;;;;11.67;7.50;;;;;;;10.97;94.51;93529.38;4971628;28;20241;-60
2022/01/09 08:45:51;;;;;;;10.77;7.70;;;;;;;10.88;93.57;93527.00;4971330;28;20214;-61
2022/01/09 08:48:17;;;;;;;8.10;5.67;;;;;;;10.67;93.91;93514.75;4971365;28;20298;-63
2022/01/09 08:50:43;;;;;;;6.87;4.87;;;;;;;10.92;92.86;93533.34;4971343;28;20683;-64
2022/01/09 08:53:09;;;;;;;11.87;5.90;;;;;;;10.30;94.56;93490.75;4971496;28;20650;-59
2022/01/09 08:55:35;;;;;;;7.30;4.60;;;;;;;10.10;96.91;93452.94;4970041;28;20212;-63
2022/01/09 08:58:01;;;;;;;6.07;3.77;;;;;;;9.86;96.54;93469.81;4971231;28;20197;-63
2022/01/09 09:00:27;;;;;;;9.10;4.80;;;;;;;9.61;97.78;93436.00;4970022;28;20200;-61
2022/01/09 09:02:52;;;;;;;8.60;5.27;;;;;;;9.42;98.78;93422.75;4971455;28;20184;-62
2022/01/09 09:05:20;;;;;;;8.47;5.67;;;;;;;9.32;100.00;93395.00;4969714;28;20204;-63
2022/01/09 09:07:46;;;;;;;8.67;5.03;;;;;;;9.36;100.00;93396.28;4970982;28;20204;-63
2022/01/09 09:10:13;;;;;;;5.23;4.00;;;;;;;9.29;99.50;93413.06;4969877;28;20258;-63
2022/01/09 09:12:39;;;;;;;7.27;4.00;;;;;;;9.29;99.57;93400.38;4970937;28;20184;-62
2022/01/09 09:15:05;;;;;;;7.27;3.60;;;;;;;9.08;100.00;93377.97;4971105;28;20201;-64
2022/01/09 09:17:31;;;;;;;5.93;3.73;;;;;;;9.23;100.00;93385.78;4970791;28;20255;-63
2022/01/09 09:19:57;;;;;;;6.83;3.93;;;;;;;9.86;99.84;93408.91;4971180;28;20630;-63
2022/01/09 09:22:24;;;;;;;7.27;4.40;;;;;;;10.51;96.63;93450.44;4969610;28;20599;-63
2022/01/09 09:24:50;;;;;;;7.07;4.10;;;;;;;10.78;93.86;93473.78;4971200;28;20207;-63
2022/01/09 09:27:19;;;;;;;6.77;4.73;;;;;;;11.16;92.77;93489.28;4977103;23;20220;-63
2022/01/09 09:29:45;;;;;;;8.50;4.60;;;;;;;11.43;90.99;93504.97;4970735;28;20579;-63
2022/01/09 09:32:13;;;;;;;5.50;3.47;;;;;;;11.56;89.47;93523.06;4970658;28;20724;-63
2022/01/09 09:34:39;;;;;;;4.57;3.07;;;;;;;11.43;88.64;93515.16;4976626;23;20233;-61
2022/01/09 09:37:06;;;;;;;6.40;3.53;;;;;;;11.40;90.50;93461.25;4970761;28;20169;-61
2022/01/09 09:39:32;;;;;;;6.20;3.77;;;;;;;11.50;89.65;93467.75;4971083;28;20191;-61
2022/01/09 09:41:59;;;;;;;4.47;3.40;;;;;;;11.88;89.56;93462.84;4970741;28;20271;-63
2022/01/09 09:44:25;;;;;;;5.47;3.43;;;;;;;11.70;87.40;93491.88;4978654;23;20184;-59
2022/01/09 09:46:53;;;;;;;5.80;3.80;;;;;;;11.76;88.38;93464.97;4970495;28;20181;-61
2022/01/09 09:49:20;;;;;;;4.83;3.67;;;;;;;11.52;88.03;93462.47;4970399;28;20254;-63
2022/01/09 09:51:46;;;;;;;4.90;3.43;;;;;;;11.21;89.54;93429.34;4970539;28;20188;-64
2022/01/09 09:54:12;;;;;;;3.83;3.33;;;;;;;10.96;90.64;93407.50;4970904;28;20219;-63
2022/01/09 09:56:38;;;;;;;5.10;3.47;;;;;;;10.72;91.82;93372.75;4970512;28;20263;-65
2022/01/09 09:59:04;;;;;;;4.73;3.50;;;;;;;10.65;92.06;93371.00;4970343;28;20200;-60
2022/01/09 10:01:33;;;;;;;5.77;3.73;;;;;;;10.52;93.07;93353.75;4970147;28;20200;-62
2022/01/09 10:04:00;;;;;;;11.30;7.20;;;;;;;10.45;98.28;93281.66;4968744;28;20188;-63
2022/01/09 10:06:42;;;;;;;6.60;4.00;;;;;;;10.61;97.13;93318.94;4970347;28;20228;-63
2022/01/09 10:09:16;;;;;;;5.77;3.97;;;;;;;10.72;94.22;93359.25;4953128;28;20218;-63
2022/01/09 10:11:47;;;;;;;5.93;4.03;;;;;;;10.49;94.66;93345.63;4969804;28;20202;-63
2022/01/09 10:14:21;;;;;;;4.37;3.57;;;;;;;10.38;95.41;93328.19;4970011;28;20205;-63
2022/01/09 10:17:04;;;;;;;4.43;3.40;;;;;;;10.40;95.39;93327.09;4968579;28;20176;-63
2022/01/09 10:19:45;;;;;;;6.80;4.30;;;;;;;10.39;95.68;93332.31;4970184;28;20188;-59
2022/01/09 10:22:25;;;;;;;8.53;3.77;;;;;;;10.33;95.76;93326.13;4970190;28;20184;-62
2022/01/09 10:24:52;;;;;;;5.57;3.70;;;;;;;10.42;95.81;93321.84;4970220;28;20297;-60
2022/01/09 10:27:32;;;;;;;5.57;3.50;;;;;;;10.60;95.63;93328.31;4970075;28;20719;-63
2022/01/09 10:29:59;;;;;;;7.27;3.90;;;;;;;10.41;96.09;93298.19;4968758;28;20563;-63
2022/01/09 10:32:26;;;;;;;10.80;5.00;;;;;;;10.38;96.51;93300.25;4969718;28;20181;-60
2022/01/09 10:35:15;;;;;;;11.03;5.17;;;;;;;10.33;96.78;93294.84;4969981;28;20685;-63
2022/01/09 10:37:43;;;;;;;9.10;5.07;;;;;;;10.09;97.73;93265.19;4968522;28;20696;-61
2022/01/09 10:40:11;;;;;;;9.80;5.70;;;;;;;9.81;98.85;93249.53;4970034;28;20575;-62
2022/01/09 10:42:38;;;;;;;10.10;5.33;;;;;;;9.82;98.73;93253.63;4968259;28;20741;-62
2022/01/09 10:45:20;;;;;;;8.23;5.13;;;;;;;9.91;98.54;93257.78;4969379;28;20709;-59
2022/01/09 10:47:45;;;;;;;7.57;4.60;;;;;;;10.02;98.51;93259.16;4969879;28;20717;-63
2022/01/09 10:50:23;;;;;;;7.90;4.73;;;;;;;9.74;98.43;93240.97;4969950;28;20291;-63
2022/01/09 10:52:48;;;;;;;7.03;4.40;;;;;;;9.97;97.26;93274.09;4968474;28;20172;-63
2022/01/09 10:55:14;;;;;;;8.33;5.03;;;;;;;9.72;98.41;93244.59;4968191;28;20231;-61
2022/01/09 10:57:40;;;;;;;10.77;5.60;;;;;;;9.74;98.66;93243.50;4969835;28;20177;-61
2022/01/09 11:00:15;;;;;;;10.10;5.37;;;;;;;10.10;98.01;93265.06;4968241;28;20212;-62
2022/01/09 11:02:44;;;;;;;6.87;4.20;;;;;;;10.09;97.13;93271.06;4969523;28;20176;-63
2022/01/09 11:05:09;;;;;;;6.37;3.40;;;;;;;10.02;96.97;93261.69;4969797;28;20208;-64
2022/01/09 11:07:36;;;;;;;4.60;3.67;;;;;;;9.63;99.01;93221.00;4969706;28;20208;-60
2022/01/09 11:10:03;;;;;;;7.40;3.93;;;;;;;9.83;99.17;93229.88;4969740;28;20212;-61
2022/01/09 11:12:35;;;;;;;6.70;3.73;;;;;;;9.69;99.30;93220.38;4969677;28;20185;-63
2022/01/09 11:15:03;;;;;;;8.07;4.60;;;;;;;9.78;99.70;93221.91;4969770;28;20196;-63
2022/01/09 11:17:29;;;;;;;7.87;3.57;;;;;;;10.01;98.31;93245.69;4969351;28;20658;-61
2022/01/09 11:19:55;;;;;;;6.43;4.30;;;;;;;10.08;97.87;93241.56;4969384;28;20755;-62
2022/01/09 11:22:22;;;;;;;9.23;4.83;;;;;;;10.52;96.23;93271.66;4969253;28;20177;-63
2022/01/09 11:25:13;;;;;;;7.73;4.40;;;;;;;10.59;95.64;93280.19;4970961;28;20215;-61
2022/01/09 11:27:47;;;;;;;7.17;3.77;;;;;;;10.58;95.89;93271.00;4972285;28;20291;-63
2022/01/09 11:30:43;;;;;;;5.90;4.07;;;;;;;10.43;95.64;93263.25;4970810;28;20731;-61